Lamont, WA

3:11 PM PDT on September 21, 2014 (GMT -0700)
Pullman-Moscow Regional | Change Station
CLOSE
Current Station
Airport
Location: Pullman,
Elevation: 2552 ft
Nearby Weather Stations

Elev 2552 ft 46.74 °N, 117.12 °W | Updated 18 minutes ago

Clear
Clear
88 °F
Feels Like 88 °F
N
4
Wind Variable Wind from Variable

Today
High -- | Low -- °F
--% Chance of Precip.
Yesterday
High -- | Low -- °F
Precip. -- in
6:36 AM 6:50 PM
Waning Crescent, 5% visible
Pressure 29.90 in
Visibility 6.0 miles
Clouds Clear
Dew Point 38 °F
Humidity 17%
Rainfall 0.00 in
Snow Depth 0 in , 0 in , 1 in
UV 4 out of 12
Pollen 7.90 out of 12
Air Quality Not available.
Flu Activity Not available.
METAR KPUW 212153Z AUTO VRB03KT 6SM HZ CLR 31/03 A2995 RMK AO2 SLP125 T03110033

More Conditions Fewer Conditions

Pressure 29.90 in
Visibility 6.0 miles
Clouds Clear
Dew Point 38 °F
Humidity 17%
Rainfall 0.00 in
Snow Depth 0 in , 0 in , 1 in
UV 4 out of 12
Pollen 7.90 out of 12
Air Quality Not available.
Flu Activity Not available.
METAR KPUW 212153Z AUTO VRB03KT 6SM HZ CLR 31/03 A2995 RMK AO2 SLP125 T03110033

More Conditions Fewer Conditions

10-Day Weather Forecast

Almanac

Astronomy

Sep. 21, 2014 Rise Set
Actual Time 6:36 AM PDT 6:50 PM PDT
Civil Twilight 6:06 AM PDT 7:21 PM PDT
Nautical Twilight 5:30 AM PDT 7:57 PM PDT
Astronomical Twilight 4:53 AM PDT 8:34 PM PDT
Moon 4:07 AM PDT 5:34 PM PDT
Length of Visible Light 13h 14m
Length of Day
12h 13m
Tomorrow will be 3m 22s shorter.
Waning Crescent, 5% of the Moon is Illuminated
Today
Waning Crescent
Sep 24
New
Oct 1
First Quarter
Oct 8
Full
Oct 15
Last Quarter

Today's Extremes

State Highs State Lows

Community

WunderPhotos

Upload Photos

1,755,269 photos uploaded!

WunderBlogs® & News

Nearby

Snow Depth

Station Depth Elevation
Spencer Meadow 0 in 3400 ft
Grouse Camp 0 in 5380 ft
Olallie Meadows 1 in 3700 ft
Swift Creek 0 in 3770 ft
Morse Lake 0 in 5400 ft

Earthquake Activity

City Distance Mag. Time & Date
No recent earthquake activity has been reported nearby.
Minimum magnitude displayed is 2.5.

Coastal Water Temperatures

Place Temperature
No Stations Reporting

Nearby Weather Stations